Time;durP1;ratioP1;P1;durP2;ratioP2;P2;SDS_P1;SDS_P2;PMS_P1;PMS_P2;Temp;Humidity;BMP_temperature;BMP_pressure;BME280_temperature;BME280_humidity;BME280_pressure;Samples;Min_cycle;Max_cycle;Signal;HPM_P1;HPM_P2
2021/01/26 00:00:08;;;;;;;1.20;0.20;;;4.20;34.50;;;;;;5038975;28;20413;-68
2021/01/26 00:02:34;;;;;;;0.30;0.20;;;4.10;36.20;;;;;;5038941;28;20032;-68
2021/01/26 00:05:00;;;;;;;0.20;0.20;;;4.00;36.40;;;;;;5038729;28;20325;-68
2021/01/26 00:07:25;;;;;;;0.45;0.22;;;4.00;34.60;;;;;;5039763;28;20019;-68
2021/01/26 00:09:51;;;;;;;0.20;0.20;;;4.10;36.20;;;;;;5039048;28;20021;-68
2021/01/26 00:12:17;;;;;;;0.28;0.20;;;4.10;35.70;;;;;;5038813;28;20022;-68
2021/01/26 00:14:43;;;;;;;0.10;0.10;;;4.00;38.10;;;;;;5038944;28;20037;-68
2021/01/26 00:17:09;;;;;;;0.40;0.15;;;3.80;36.10;;;;;;5038714;28;20033;-68
2021/01/26 00:19:35;;;;;;;0.10;0.10;;;3.80;35.20;;;;;;5038890;28;20029;-68
2021/01/26 00:22:00;;;;;;;0.40;0.20;;;3.80;35.40;;;;;;5038619;28;20057;-68
2021/01/26 00:24:26;;;;;;;0.50;0.17;;;3.80;36.60;;;;;;5038699;28;20105;-68
2021/01/26 00:26:52;;;;;;;0.20;0.15;;;3.70;39.70;;;;;;5038504;28;20076;-68
2021/01/26 00:29:17;;;;;;;0.38;0.20;;;3.60;39.20;;;;;;5038335;28;20049;-68
2021/01/26 00:31:43;;;;;;;0.43;0.20;;;3.40;40.10;;;;;;5038434;28;20126;-68
2021/01/26 00:34:09;;;;;;;0.10;0.10;;;3.20;39.10;;;;;;5038372;28;20025;-68
2021/01/26 00:36:34;;;;;;;0.20;0.10;;;3.10;40.10;;;;;;5037503;28;20059;-68
2021/01/26 00:39:00;;;;;;;0.10;0.10;;;2.90;40.80;;;;;;5038254;28;20029;-68
2021/01/26 00:41:26;;;;;;;0.35;0.25;;;2.90;38.50;;;;;;5038477;28;20020;-68
2021/01/26 00:43:51;;;;;;;0.47;0.20;;;3.10;36.90;;;;;;5037120;28;20151;-68
2021/01/26 00:46:17;;;;;;;0.28;0.20;;;3.20;37.80;;;;;;5038018;28;20030;-68
2021/01/26 00:48:43;;;;;;;0.20;0.20;;;3.20;39.60;;;;;;5038134;28;20083;-68
2021/01/26 00:51:09;;;;;;;0.20;0.20;;;3.10;38.30;;;;;;5038064;28;20108;-68
2021/01/26 00:53:35;;;;;;;0.40;0.10;;;3.10;38.20;;;;;;5037927;28;20056;-68
2021/01/26 00:56:01;;;;;;;0.10;0.10;;;3.00;39.00;;;;;;5038375;28;20029;-68
2021/01/26 00:58:27;;;;;;;0.20;0.20;;;2.90;39.40;;;;;;5037925;28;20033;-68
2021/01/26 01:00:52;;;;;;;1.27;0.20;;;2.80;39.90;;;;;;5038083;28;20025;-68
2021/01/26 01:03:18;;;;;;;0.47;0.20;;;2.60;40.80;;;;;;5037910;28;20033;-68
2021/01/26 01:05:44;;;;;;;0.20;0.20;;;2.50;41.70;;;;;;5037577;28;20325;-68
2021/01/26 01:08:09;;;;;;;0.20;0.20;;;2.30;44.90;;;;;;5037991;28;20028;-68
2021/01/26 01:10:38;;;;;;;0.35;0.20;;;2.20;40.70;;;;;;5037640;28;20356;-68
2021/01/26 01:13:05;;;;;;;0.20;0.20;;;2.10;43.00;;;;;;5037847;28;20317;-68
2021/01/26 01:15:32;;;;;;;0.52;0.20;;;2.10;41.40;;;;;;5037709;28;20030;-68
2021/01/26 01:17:57;;;;;;;0.43;0.30;;;2.10;45.30;;;;;;5037682;28;20036;-68
2021/01/26 01:20:26;;;;;;;0.20;0.20;;;2.00;42.70;;;;;;5036435;28;20029;-68
2021/01/26 01:22:52;;;;;;;0.40;0.30;;;1.90;41.90;;;;;;5037160;28;20414;-68
2021/01/26 01:25:19;;;;;;;0.20;0.15;;;1.90;45.80;;;;;;5037396;28;20109;-68
2021/01/26 01:27:46;;;;;;;0.25;0.20;;;1.90;39.40;;;;;;5037163;28;20030;-69
2021/01/26 01:30:15;;;;;;;0.95;0.30;;;1.90;44.20;;;;;;5037350;28;20190;-68
2021/01/26 01:32:41;;;;;;;1.00;0.30;;;2.00;43.10;;;;;;5037258;28;20044;-68
2021/01/26 01:35:07;;;;;;;0.95;0.32;;;2.20;40.00;;;;;;5037119;28;20433;-68
2021/01/26 01:37:33;;;;;;;0.60;0.30;;;2.30;42.10;;;;;;5037174;28;20155;-68
2021/01/26 01:39:58;;;;;;;1.95;0.30;;;2.20;44.90;;;;;;5037153;28;20068;-68
2021/01/26 01:42:24;;;;;;;0.57;0.25;;;2.00;44.00;;;;;;5037234;28;20054;-68
2021/01/26 01:44:51;;;;;;;0.65;0.32;;;2.00;39.20;;;;;;5036861;28;20057;-68
2021/01/26 01:47:44;;;;;;;0.50;0.30;;;2.40;39.00;;;;;;5037341;28;20026;-68
2021/01/26 01:50:16;;;;;;;0.30;0.30;;;2.60;39.70;;;;;;5037391;28;20024;-68
2021/01/26 01:52:41;;;;;;;0.38;0.30;;;2.70;40.70;;;;;;5037022;28;20022;-68
2021/01/26 01:55:13;;;;;;;0.60;0.20;;;2.70;40.00;;;;;;5037073;28;20029;-68
2021/01/26 01:57:46;;;;;;;1.25;0.30;;;2.50;41.30;;;;;;5037240;28;20299;-68
2021/01/26 02:00:15;;;;;;;0.35;0.22;;;2.50;40.90;;;;;;5036862;28;20460;-68
2021/01/26 02:02:44;;;;;;;0.20;0.20;;;2.60;40.40;;;;;;5036750;28;20037;-68
2021/01/26 02:05:12;;;;;;;0.52;0.30;;;2.50;40.70;;;;;;5036887;28;20025;-68
2021/01/26 02:07:38;;;;;;;0.57;0.25;;;2.60;41.10;;;;;;5036746;28;20055;-68
2021/01/26 02:10:04;;;;;;;0.70;0.30;;;2.70;38.90;;;;;;5036716;28;20089;-68
2021/01/26 02:12:30;;;;;;;1.05;0.50;;;2.70;38.70;;;;;;5036686;28;20037;-68
2021/01/26 02:14:58;;;;;;;0.95;0.40;;;2.60;39.70;;;;;;5036728;28;20033;-68
2021/01/26 02:17:54;;;;;;;0.35;0.22;;;2.80;38.20;;;;;;5036926;28;20120;-68
2021/01/26 02:20:50;;;;;;;0.50;0.30;;;2.80;39.30;;;;;;5036747;28;20447;-68
2021/01/26 02:23:43;;;;;;;0.95;0.40;;;2.60;41.70;;;;;;5036882;28;20112;-68
2021/01/26 02:26:55;;;;;;;0.57;0.22;;;2.40;42.80;;;;;;5036936;28;20413;-68
2021/01/26 02:29:32;;;;;;;0.45;0.32;;;2.50;40.80;;;;;;5036571;28;20058;-68
2021/01/26 02:32:16;;;;;;;0.60;0.40;;;2.40;40.60;;;;;;5036857;28;20021;-68
2021/01/26 02:35:03;;;;;;;0.50;0.40;;;2.60;40.90;;;;;;5036773;28;20364;-68
2021/01/26 02:37:55;;;;;;;0.50;0.40;;;2.60;41.70;;;;;;5040576;28;20079;-68
2021/01/26 02:40:46;;;;;;;0.80;0.50;;;2.50;40.70;;;;;;5040692;28;20057;-68
2021/01/26 02:43:34;;;;;;;0.63;0.30;;;2.50;41.20;;;;;;5040489;28;20111;-68
2021/01/26 02:46:28;;;;;;;0.68;0.30;;;2.70;39.90;;;;;;5040305;28;20452;-68
2021/01/26 02:49:24;;;;;;;0.73;0.40;;;2.80;40.40;;;;;;5040337;28;20031;-68
2021/01/26 02:52:12;;;;;;;0.47;0.20;;;2.90;38.40;;;;;;5039238;28;20029;-68
2021/01/26 02:54:44;;;;;;;3.75;0.40;;;2.90;38.40;;;;;;5040295;28;20025;-68
2021/01/26 02:57:16;;;;;;;0.40;0.20;;;2.80;38.20;;;;;;5040467;28;20049;-68
2021/01/26 02:59:53;;;;;;;0.40;0.30;;;2.70;37.30;;;;;;5040188;28;20032;-68
2021/01/26 03:02:36;;;;;;;0.22;0.20;;;2.70;37.90;;;;;;5040780;28;20549;-68
2021/01/26 03:05:14;;;;;;;0.30;0.25;;;2.80;37.90;;;;;;5040324;28;20367;-68
2021/01/26 03:07:45;;;;;;;0.10;0.10;;;2.80;38.10;;;;;;5040070;28;20029;-68
2021/01/26 03:10:15;;;;;;;0.20;0.20;;;2.70;38.50;;;;;;5039938;28;20032;-68
2021/01/26 03:12:50;;;;;;;0.70;0.30;;;2.70;38.30;;;;;;5039963;28;20072;-68
2021/01/26 03:15:43;;;;;;;0.20;0.20;;;2.70;37.90;;;;;;5039789;28;20327;-68
2021/01/26 03:18:14;;;;;;;0.20;0.20;;;2.70;37.80;;;;;;5039855;28;20036;-68
2021/01/26 03:20:55;;;;;;;0.30;0.20;;;2.70;37.50;;;;;;5039994;28;20156;-68
2021/01/26 03:23:31;;;;;;;0.20;0.20;;;2.70;38.60;;;;;;5039889;28;20026;-68
2021/01/26 03:25:57;;;;;;;0.55;0.20;;;2.60;39.50;;;;;;5038673;28;20030;-68
2021/01/26 03:28:26;;;;;;;0.30;0.20;;;2.50;38.50;;;;;;5039678;28;20061;-68
2021/01/26 03:30:57;;;;;;;0.75;0.30;;;2.50;37.40;;;;;;5039666;28;20091;-68
2021/01/26 03:33:32;;;;;;;0.45;0.30;;;2.40;40.70;;;;;;5039694;28;20026;-68
2021/01/26 03:35:59;;;;;;;0.10;0.10;;;2.30;39.70;;;;;;5039494;28;20103;-68
2021/01/26 03:38:31;;;;;;;0.60;0.30;;;2.20;39.60;;;;;;5039439;28;20029;-68
2021/01/26 03:40:59;;;;;;;0.25;0.20;;;2.30;38.40;;;;;;5039545;28;20033;-68
2021/01/26 03:43:25;;;;;;;0.43;0.30;;;2.30;40.40;;;;;;5039336;28;20033;-68
2021/01/26 03:45:58;;;;;;;0.20;0.20;;;2.20;38.60;;;;;;5038827;28;20021;-68
2021/01/26 03:48:51;;;;;;;0.22;0.20;;;2.10;40.10;;;;;;5039227;28;20030;-68
2021/01/26 03:51:46;;;;;;;0.15;0.15;;;2.10;40.20;;;;;;5038968;28;20037;-68
2021/01/26 03:54:17;;;;;;;0.10;0.10;;;2.00;39.80;;;;;;5038285;28;20108;-68
2021/01/26 03:57:01;;;;;;;0.20;0.20;;;2.10;39.90;;;;;;5039062;28;20026;-68
2021/01/26 03:59:45;;;;;;;0.93;0.20;;;2.20;38.20;;;;;;5039264;28;20029;-68
2021/01/26 04:02:18;;;;;;;0.25;0.10;;;2.40;38.20;;;;;;5038995;28;20032;-68
2021/01/26 04:05:22;;;;;;;0.30;0.30;;;2.50;37.40;;;;;;5038946;28;20030;-68
2021/01/26 04:08:12;;;;;;;0.75;0.20;;;2.60;37.10;;;;;;5037652;28;20380;-68
2021/01/26 04:10:53;;;;;;;0.40;0.25;;;2.70;38.10;;;;;;5039054;28;20083;-68
2021/01/26 04:13:24;;;;;;;0.25;0.20;;;2.70;37.80;;;;;;5039084;28;20041;-68
2021/01/26 04:15:54;;;;;;;0.20;0.20;;;2.80;37.70;;;;;;5038960;28;20357;-68
2021/01/26 04:18:35;;;;;;;0.25;0.20;;;2.80;38.20;;;;;;5038705;28;20032;-68
2021/01/26 04:21:03;;;;;;;0.50;0.22;;;2.80;37.70;;;;;;5038652;28;20118;-68
2021/01/26 04:23:29;;;;;;;1.15;0.20;;;2.70;39.20;;;;;;5038640;28;20049;-68
2021/01/26 04:26:04;;;;;;;0.25;0.20;;;2.50;38.20;;;;;;5038852;28;20025;-68
2021/01/26 04:28:41;;;;;;;0.40;0.20;;;2.40;40.40;;;;;;5038431;28;20073;-68
2021/01/26 04:31:09;;;;;;;0.50;0.50;;;2.30;38.60;;;;;;5038449;28;20317;-68
2021/01/26 04:33:34;;;;;;;0.55;0.30;;;2.30;38.70;;;;;;5038714;28;20021;-68
2021/01/26 04:36:01;;;;;;;0.20;0.20;;;2.30;39.80;;;;;;5038563;28;20026;-68
2021/01/26 04:38:27;;;;;;;0.22;0.20;;;2.30;38.50;;;;;;5038567;28;20021;-68
2021/01/26 04:41:00;;;;;;;0.40;0.30;;;2.40;39.40;;;;;;5038262;28;20424;-68
2021/01/26 04:43:38;;;;;;;0.50;0.30;;;2.30;40.60;;;;;;5038532;28;20068;-68
2021/01/26 04:46:22;;;;;;;0.30;0.20;;;2.10;41.10;;;;;;5038101;28;20025;-68
2021/01/26 04:48:54;;;;;;;0.28;0.20;;;2.00;41.50;;;;;;5037124;28;20047;-68
2021/01/26 04:51:27;;;;;;;1.50;0.30;;;2.00;41.10;;;;;;5038096;28;20021;-68
2021/01/26 04:54:20;;;;;;;0.90;0.40;;;2.10;40.70;;;;;;5037952;28;20072;-68
2021/01/26 04:57:09;;;;;;;0.57;0.30;;;2.10;40.30;;;;;;5037976;28;20029;-68
2021/01/26 04:59:48;;;;;;;0.70;0.30;;;2.30;40.30;;;;;;5037189;28;20026;-68
2021/01/26 05:02:23;;;;;;;0.70;0.40;;;2.30;39.80;;;;;;5038112;28;20025;-68
2021/01/26 05:05:00;;;;;;;0.70;0.30;;;2.30;40.00;;;;;;5037674;28;20147;-68
2021/01/26 05:07:30;;;;;;;0.80;0.30;;;2.30;40.50;;;;;;5038108;28;20108;-68
2021/01/26 05:10:05;;;;;;;0.20;0.20;;;2.10;41.00;;;;;;5037792;28;20057;-68
2021/01/26 05:12:55;;;;;;;0.20;0.20;;;2.10;39.40;;;;;;5037721;28;20105;-68
2021/01/26 05:15:28;;;;;;;0.60;0.20;;;2.10;38.50;;;;;;5036845;28;20040;-68
2021/01/26 05:18:11;;;;;;;0.47;0.30;;;2.10;39.40;;;;;;5037761;28;20026;-68
2021/01/26 05:20:42;;;;;;;0.47;0.30;;;2.20;38.80;;;;;;5037832;28;20039;-68
2021/01/26 05:23:18;;;;;;;1.30;0.40;;;2.30;39.90;;;;;;5037721;28;20068;-68
2021/01/26 05:25:45;;;;;;;0.70;0.40;;;2.30;41.50;;;;;;5037637;28;20040;-68
2021/01/26 05:28:11;;;;;;;1.77;0.50;;;2.10;43.10;;;;;;5037450;28;20065;-68
2021/01/26 05:30:38;;;;;;;0.20;0.20;;;1.70;43.90;;;;;;5037344;28;20364;-68
2021/01/26 05:33:07;;;;;;;0.43;0.30;;;1.70;41.50;;;;;;5037299;28;20017;-68
2021/01/26 05:35:34;;;;;;;0.57;0.40;;;1.80;42.70;;;;;;5037468;28;20414;-68
2021/01/26 05:38:00;;;;;;;0.25;0.25;;;1.70;41.80;;;;;;5037521;28;20112;-68
2021/01/26 05:40:35;;;;;;;0.20;0.20;;;1.80;40.00;;;;;;5037168;28;20052;-68
2021/01/26 05:43:04;;;;;;;0.80;0.50;;;1.90;41.00;;;;;;5037421;28;20095;-68
2021/01/26 05:45:39;;;;;;;0.65;0.43;;;1.70;44.70;;;;;;5037015;28;20040;-68
2021/01/26 05:48:15;;;;;;;0.60;0.30;;;1.50;44.60;;;;;;5037263;28;20099;-68
2021/01/26 05:50:43;;;;;;;0.35;0.30;;;1.30;45.50;;;;;;5037250;28;20033;-68
2021/01/26 05:53:16;;;;;;;0.63;0.30;;;1.10;42.30;;;;;;5037035;28;20017;-68
2021/01/26 05:55:56;;;;;;;0.45;0.30;;;1.30;41.00;;;;;;5037273;28;20090;-68
2021/01/26 05:58:26;;;;;;;0.70;0.30;;;1.30;43.30;;;;;;5036930;28;20037;-68
2021/01/26 06:01:00;;;;;;;0.38;0.20;;;1.40;41.10;;;;;;5037164;28;20049;-68
2021/01/26 06:03:27;;;;;;;0.50;0.40;;;1.50;42.90;;;;;;5036974;28;20033;-68
2021/01/26 06:06:11;;;;;;;0.25;0.20;;;1.70;40.90;;;;;;5036757;28;20048;-68
2021/01/26 06:08:54;;;;;;;0.30;0.20;;;1.90;39.40;;;;;;5036837;28;20360;-68
2021/01/26 06:11:28;;;;;;;0.28;0.20;;;2.20;38.90;;;;;;5035669;28;20034;-68
2021/01/26 06:14:14;;;;;;;0.55;0.30;;;2.40;38.30;;;;;;5037011;28;20024;-68
2021/01/26 06:16:40;;;;;;;0.20;0.20;;;2.60;37.80;;;;;;5036660;28;20030;-68
2021/01/26 06:19:06;;;;;;;0.88;0.35;;;2.60;38.80;;;;;;5036614;28;20033;-68
2021/01/26 06:21:48;;;;;;;0.98;0.47;;;2.60;39.80;;;;;;5036592;28;20037;-68
2021/01/26 06:24:16;;;;;;;0.60;0.32;;;2.30;44.70;;;;;;5036445;28;20422;-68
2021/01/26 06:27:01;;;;;;;0.75;0.38;;;1.90;43.60;;;;;;5036582;28;20473;-68
2021/01/26 06:29:44;;;;;;;0.73;0.30;;;1.80;43.10;;;;;;5035448;28;20047;-68
2021/01/26 06:32:31;;;;;;;0.20;0.20;;;1.90;41.10;;;;;;5036851;28;20049;-68
2021/01/26 06:35:04;;;;;;;0.43;0.28;;;2.00;40.50;;;;;;5036535;28;20040;-68
2021/01/26 06:37:51;;;;;;;0.50;0.30;;;2.00;40.60;;;;;;5036527;28;20052;-68
2021/01/26 06:40:39;;;;;;;0.30;0.20;;;2.10;40.70;;;;;;5036669;28;20380;-68
2021/01/26 06:43:33;;;;;;;0.68;0.30;;;1.90;40.60;;;;;;5036363;28;20479;-68
2021/01/26 06:46:12;;;;;;;0.68;0.20;;;1.80;41.20;;;;;;5036200;28;20026;-68
2021/01/26 06:48:58;;;;;;;2.63;0.40;;;1.60;41.70;;;;;;5037007;28;20022;-68
2021/01/26 06:51:48;;;;;;;0.60;0.32;;;1.60;41.20;;;;;;5036613;28;20381;-68
2021/01/26 06:54:34;;;;;;;0.28;0.20;;;1.60;40.10;;;;;;5036662;28;20028;-68
2021/01/26 06:57:35;;;;;;;0.30;0.30;;;1.60;39.70;;;;;;5035997;28;20042;-68
2021/01/26 07:00:19;;;;;;;0.35;0.28;;;1.70;41.10;;;;;;5036295;28;20053;-68
2021/01/26 07:03:12;;;;;;;0.30;0.30;;;2.00;38.40;;;;;;5036522;28;20097;-68
2021/01/26 07:06:05;;;;;;;0.30;0.20;;;2.10;38.10;;;;;;5036174;28;20025;-68
2021/01/26 07:09:12;;;;;;;0.20;0.20;;;2.40;36.90;;;;;;5036520;28;20045;-68
2021/01/26 07:11:50;;;;;;;0.30;0.30;;;2.50;37.20;;;;;;5035955;28;20034;-68
2021/01/26 07:14:49;;;;;;;0.65;0.32;;;2.70;35.40;;;;;;5036399;28;20056;-68
2021/01/26 07:17:48;;;;;;;0.63;0.30;;;2.70;35.80;;;;;;5036732;28;20453;-68
2021/01/26 07:20:43;;;;;;;1.10;0.32;;;2.70;37.90;;;;;;5036287;28;20083;-68
2021/01/26 07:23:17;;;;;;;0.52;0.32;;;2.80;37.10;;;;;;5037948;28;20029;-68
2021/01/26 07:26:06;;;;;;;0.73;0.30;;;2.80;35.60;;;;;;5039968;28;20036;-68
2021/01/26 07:28:40;;;;;;;1.90;0.77;;;2.80;34.80;;;;;;5039513;28;20559;-68
2021/01/26 07:31:14;;;;;;;1.02;0.50;;;2.90;36.40;;;;;;5038477;28;20116;-68
2021/01/26 07:34:02;;;;;;;2.05;1.17;;;2.80;38.30;;;;;;5039474;28;20084;-68
2021/01/26 07:36:35;;;;;;;0.80;0.40;;;2.80;35.70;;;;;;5039429;28;20025;-68
2021/01/26 07:39:38;;;;;;;0.55;0.30;;;3.00;35.20;;;;;;5039678;28;20029;-68
2021/01/26 07:42:20;;;;;;;0.90;0.30;;;3.10;37.40;;;;;;5038356;28;20046;-68
2021/01/26 07:45:05;;;;;;;0.63;0.40;;;3.20;39.00;;;;;;5039475;28;20098;-68
2021/01/26 07:47:36;;;;;;;0.32;0.20;;;3.20;39.70;;;;;;5039560;28;20022;-68
2021/01/26 07:50:15;;;;;;;2.03;1.00;;;3.20;36.50;;;;;;5039528;28;20033;-68
2021/01/26 07:52:46;;;;;;;6.10;1.80;;;3.20;45.60;;;;;;5039526;28;20043;-68
2021/01/26 07:55:37;;;;;;;2.03;1.33;;;3.10;49.70;;;;;;5039166;28;20037;-68
2021/01/26 07:58:08;;;;;;;1.60;1.20;;;3.00;46.20;;;;;;5039184;28;20325;-68
2021/01/26 08:00:38;;;;;;;3.10;1.63;;;2.80;44.50;;;;;;5039308;28;20109;-68
2021/01/26 08:03:04;;;;;;;4.05;2.30;;;2.90;51.30;;;;;;5039363;28;20025;-68
2021/01/26 08:05:51;;;;;;;1.65;1.00;;;3.10;52.20;;;;;;5038874;28;20029;-68
2021/01/26 08:08:39;;;;;;;1.58;0.77;;;3.20;46.20;;;;;;5037889;28;20108;-68
2021/01/26 08:11:10;;;;;;;1.00;0.70;;;3.30;40.00;;;;;;5038994;28;20053;-68
2021/01/26 08:13:42;;;;;;;0.70;0.50;;;3.40;40.30;;;;;;5039103;28;20104;-68
2021/01/26 08:16:26;;;;;;;0.95;0.50;;;3.40;38.10;;;;;;5038826;28;20517;-68
2021/01/26 08:18:52;;;;;;;0.43;0.30;;;3.50;38.30;;;;;;5038674;28;20460;-68
2021/01/26 08:21:42;;;;;;;1.30;0.70;;;3.50;36.10;;;;;;5038584;28;20029;-68
2021/01/26 08:24:10;;;;;;;1.17;0.60;;;3.60;40.50;;;;;;5038759;28;20096;-68
2021/01/26 08:26:36;;;;;;;1.17;0.52;;;3.70;40.40;;;;;;5038506;28;20030;-68
2021/01/26 08:29:02;;;;;;;1.05;0.50;;;3.60;40.90;;;;;;5038335;28;20429;-68
2021/01/26 08:31:39;;;;;;;1.92;1.25;;;3.40;41.30;;;;;;5038747;28;20143;-68
2021/01/26 08:34:20;;;;;;;4.88;3.13;;;3.30;43.80;;;;;;5037279;28;20021;-68
2021/01/26 08:37:06;;;;;;;4.10;3.00;;;3.30;53.40;;;;;;5037295;28;20029;-68
2021/01/26 08:39:49;;;;;;;3.45;2.30;;;3.40;54.90;;;;;;5038186;28;20029;-68
2021/01/26 08:42:59;;;;;;;2.13;1.13;;;3.30;51.10;;;;;;5038319;28;20103;-68
2021/01/26 08:45:26;;;;;;;6.75;2.40;;;3.40;44.60;;;;;;5037934;28;20414;-68
2021/01/26 08:47:56;;;;;;;3.72;2.00;;;3.40;49.10;;;;;;5037165;28;20037;-68
2021/01/26 08:50:51;;;;;;;2.75;1.50;;;3.50;50.40;;;;;;5038385;28;20026;-68
2021/01/26 08:53:28;;;;;;;2.28;1.30;;;3.60;47.40;;;;;;5037487;28;20418;-68
2021/01/26 08:55:55;;;;;;;2.30;1.38;;;3.80;49.10;;;;;;5038395;28;20049;-68
2021/01/26 08:58:48;;;;;;;0.57;0.40;;;4.00;46.10;;;;;;5037958;28;20033;-68
2021/01/26 09:01:23;;;;;;;0.70;0.43;;;4.30;39.70;;;;;;5034631;28;20330;-68
2021/01/26 09:04:18;;;;;;;2.33;0.68;;;4.50;40.00;;;;;;5038019;28;20380;-68
2021/01/26 09:06:46;;;;;;;1.15;0.43;;;4.70;38.90;;;;;;5037697;28;20037;-68
2021/01/26 09:09:24;;;;;;;1.20;0.70;;;4.80;35.10;;;;;;5038099;28;20037;-68
2021/01/26 09:11:56;;;;;;;0.77;0.47;;;4.80;40.70;;;;;;5037730;28;20071;-68
2021/01/26 09:14:44;;;;;;;4.55;2.80;;;5.00;38.80;;;;;;5037796;28;20068;-68
2021/01/26 09:17:13;;;;;;;2.58;1.42;;;5.00;44.30;;;;;;5038247;28;20018;-68
2021/01/26 09:19:42;;;;;;;2.83;1.65;;;5.10;42.80;;;;;;5037843;28;20321;-68
2021/01/26 09:22:13;;;;;;;5.25;2.83;;;5.20;43.50;;;;;;5037571;28;20317;-68
2021/01/26 09:24:40;;;;;;;6.45;4.10;;;5.40;49.30;;;;;;5037444;28;20108;-69
2021/01/26 09:27:36;;;;;;;5.20;3.78;;;5.70;53.30;;;;;;5037611;28;20025;-68
2021/01/26 09:30:11;;;;;;;4.75;3.33;;;6.00;53.40;;;;;;5036937;28;20049;-68
2021/01/26 09:32:39;;;;;;;4.30;3.35;;;6.50;51.70;;;;;;5037495;28;20032;-68
2021/01/26 09:35:34;;;;;;;5.38;4.22;;;7.40;49.30;;;;;;5037213;28;20026;-69
2021/01/26 09:38:11;;;;;;;5.25;3.25;;;8.40;48.60;;;;;;5036958;28;20080;-69
2021/01/26 09:40:39;;;;;;;4.28;2.80;;;9.00;45.60;;;;;;5037201;28;20032;-69
2021/01/26 09:43:16;;;;;;;4.50;2.95;;;9.40;43.00;;;;;;5037185;28;20324;-69
2021/01/26 09:45:43;;;;;;;4.60;2.80;;;10.10;41.90;;;;;;5036592;28;20095;-69
2021/01/26 09:48:14;;;;;;;4.43;3.22;;;10.50;40.80;;;;;;5037311;28;20026;-69
2021/01/26 09:50:39;;;;;;;5.82;3.35;;;11.00;41.20;;;;;;5037306;28;20051;-67
2021/01/26 09:53:06;;;;;;;6.15;3.70;;;10.90;38.60;;;;;;5037060;28;20421;-69
2021/01/26 09:55:34;;;;;;;4.97;3.47;;;11.00;40.80;;;;;;5037462;28;20314;-69
2021/01/26 09:58:00;;;;;;;5.47;3.85;;;11.40;40.10;;;;;;5036968;28;20056;-69
2021/01/26 10:00:28;;;;;;;5.30;3.90;;;11.30;39.20;;;;;;5037161;28;20040;-69
2021/01/26 10:02:56;;;;;;;5.30;3.55;;;11.10;40.90;;;;;;5036794;28;20029;-69
2021/01/26 10:05:27;;;;;;;3.47;2.85;;;11.10;41.00;;;;;;5036646;28;20112;-69
2021/01/26 10:08:19;;;;;;;6.15;3.42;;;11.30;40.00;;;;;;5036842;28;20048;-69
2021/01/26 10:10:45;;;;;;;4.30;2.67;;;11.60;38.10;;;;;;5040408;28;20046;-67
2021/01/26 10:13:30;;;;;;;3.53;2.33;;;11.80;37.30;;;;;;5050667;28;20025;-67
2021/01/26 10:15:56;;;;;;;4.78;3.38;;;12.10;37.30;;;;;;5056579;28;20094;-67
2021/01/26 10:18:30;;;;;;;9.30;3.85;;;12.00;38.20;;;;;;5056791;28;20029;-69
2021/01/26 10:21:02;;;;;;;6.18;3.60;;;11.90;38.60;;;;;;5056694;28;20029;-69
2021/01/26 10:23:43;;;;;;;5.95;3.40;;;12.40;39.00;;;;;;5056831;28;20024;-69
2021/01/26 10:26:23;;;;;;;5.22;3.78;;;12.60;38.70;;;;;;5056921;28;20033;-69
2021/01/26 10:29:07;;;;;;;4.40;3.85;;;12.60;38.60;;;;;;5056506;28;20053;-69
2021/01/26 10:31:50;;;;;;;6.75;4.50;;;12.10;39.50;;;;;;5056826;28;20302;-69
2021/01/26 10:34:34;;;;;;;8.63;5.05;;;11.90;41.90;;;;;;5056580;28;20025;-69
2021/01/26 10:37:22;;;;;;;7.80;3.30;;;12.10;40.40;;;;;;5056644;28;20061;-69
2021/01/26 10:40:06;;;;;;;3.58;2.80;;;12.20;38.30;;;;;;5056387;28;20021;-69
2021/01/26 10:42:33;;;;;;;7.70;4.03;;;11.80;36.10;;;;;;5056347;28;20040;-69
2021/01/26 10:45:00;;;;;;;10.68;4.40;;;12.10;39.50;;;;;;5056141;28;20013;-69
2021/01/26 10:47:37;;;;;;;10.20;4.78;;;12.10;40.90;;;;;;5056606;28;20408;-69
2021/01/26 10:50:06;;;;;;;7.90;4.45;;;11.70;41.20;;;;;;5056280;28;20032;-69
2021/01/26 10:52:43;;;;;;;7.75;4.90;;;11.60;39.90;;;;;;5056289;28;20029;-69
2021/01/26 10:55:21;;;;;;;8.20;5.20;;;11.80;42.00;;;;;;5056458;28;20029;-69
2021/01/26 10:57:49;;;;;;;5.95;4.40;;;12.20;41.30;;;;;;5059308;28;20029;-69
2021/01/26 11:00:19;;;;;;;5.80;4.03;;;12.30;38.50;;;;;;5059083;28;20034;-69
2021/01/26 11:02:45;;;;;;;5.32;3.72;;;12.70;38.30;;;;;;5060103;28;20036;-69
2021/01/26 11:05:12;;;;;;;6.68;4.45;;;12.70;40.00;;;;;;5060012;28;20025;-69
2021/01/26 11:07:39;;;;;;;5.53;4.30;;;13.00;37.60;;;;;;5060063;28;20021;-69
2021/01/26 11:10:07;;;;;;;6.45;5.18;;;13.40;38.60;;;;;;5060049;28;20368;-69
2021/01/26 11:12:34;;;;;;;6.95;4.97;;;13.00;39.70;;;;;;5059890;28;20025;-69
2021/01/26 11:15:02;;;;;;;5.97;4.32;;;12.40;41.10;;;;;;5059800;28;20067;-69
2021/01/26 11:17:27;;;;;;;11.10;5.07;;;12.40;41.00;;;;;;5060297;28;20363;-69
2021/01/26 11:19:53;;;;;;;6.70;4.88;;;12.90;40.00;;;;;;5059800;28;20033;-69
2021/01/26 11:22:19;;;;;;;8.98;5.88;;;12.70;41.70;;;;;;5059855;28;20151;-69
2021/01/26 11:24:46;;;;;;;7.43;5.07;;;12.80;41.40;;;;;;5059799;28;20017;-69
2021/01/26 11:27:12;;;;;;;11.85;5.95;;;12.80;38.90;;;;;;5059882;28;20025;-69
2021/01/26 11:29:37;;;;;;;8.02;5.20;;;12.80;39.90;;;;;;5059425;28;20055;-69
2021/01/26 11:32:04;;;;;;;7.35;5.40;;;12.90;40.10;;;;;;5058513;28;20029;-69
2021/01/26 11:34:31;;;;;;;6.20;4.82;;;12.90;39.20;;;;;;5059544;28;20421;-69
2021/01/26 11:36:57;;;;;;;10.85;5.55;;;12.70;39.50;;;;;;5059365;28;20079;-69
2021/01/26 11:39:23;;;;;;;9.32;5.00;;;12.80;40.60;;;;;;5059380;28;20032;-69
2021/01/26 11:41:49;;;;;;;9.07;5.03;;;13.00;38.90;;;;;;5059384;28;20033;-69
2021/01/26 11:44:14;;;;;;;10.40;5.38;;;13.00;40.90;;;;;;5059267;28;20044;-69
2021/01/26 11:46:40;;;;;;;8.52;5.88;;;12.80;41.50;;;;;;5059199;28;20048;-69
2021/01/26 11:49:06;;;;;;;8.20;5.57;;;12.60;41.50;;;;;;5059502;28;20374;-69
2021/01/26 11:51:32;;;;;;;7.20;5.40;;;12.70;41.50;;;;;;5058094;28;20120;-69
2021/01/26 11:53:58;;;;;;;6.97;4.90;;;12.70;41.40;;;;;;5059255;28;20017;-69
2021/01/26 11:56:25;;;;;;;6.28;4.60;;;12.70;41.40;;;;;;5059124;28;20044;-69
2021/01/26 11:58:51;;;;;;;7.10;5.47;;;12.70;41.60;;;;;;5059076;28;20078;-69
2021/01/26 12:01:18;;;;;;;6.75;4.97;;;12.90;42.40;;;;;;5059136;28;20025;-69
2021/01/26 12:03:45;;;;;;;7.78;5.82;;;12.70;41.70;;;;;;5058992;28;20036;-69
2021/01/26 12:06:11;;;;;;;7.97;5.25;;;12.60;43.50;;;;;;5059039;28;20363;-69
2021/01/26 12:08:38;;;;;;;6.97;5.45;;;12.40;43.10;;;;;;5058840;28;20151;-69
2021/01/26 12:11:04;;;;;;;7.88;5.60;;;12.40;42.70;;;;;;5058908;28;20078;-69
2021/01/26 12:13:31;;;;;;;7.32;5.63;;;12.40;43.30;;;;;;5058994;28;20025;-69
2021/01/26 12:15:57;;;;;;;9.07;5.90;;;12.20;44.00;;;;;;5057892;28;20318;-69
2021/01/26 12:18:22;;;;;;;9.43;5.32;;;12.00;44.70;;;;;;5058704;28;20025;-69
2021/01/26 12:20:48;;;;;;;7.57;5.68;;;12.20;44.90;;;;;;5058616;28;20390;-69
2021/01/26 12:23:14;;;;;;;6.05;4.97;;;12.10;44.10;;;;;;5058631;28;20029;-69
2021/01/26 12:25:40;;;;;;;7.78;5.22;;;12.30;45.70;;;;;;5057250;28;20039;-69
2021/01/26 12:28:07;;;;;;;8.35;4.68;;;12.40;43.60;;;;;;5058546;28;20069;-69
2021/01/26 12:30:33;;;;;;;5.95;5.07;;;12.40;43.50;;;;;;5057439;28;20124;-67
2021/01/26 12:32:59;;;;;;;6.80;4.50;;;12.50;44.60;;;;;;5058649;28;20047;-69
2021/01/26 12:35:30;;;;;;;6.15;4.72;;;12.50;42.10;;;;;;5058302;28;20025;-69
2021/01/26 12:37:56;;;;;;;5.88;4.75;;;12.20;43.40;;;;;;5058923;28;20051;-69
2021/01/26 12:40:23;;;;;;;6.85;4.72;;;11.90;46.50;;;;;;5058254;28;20029;-67
2021/01/26 12:42:50;;;;;;;5.00;3.90;;;11.60;44.10;;;;;;5058269;28;20071;-67
2021/01/26 12:45:20;;;;;;;7.22;4.35;;;11.60;45.90;;;;;;5057987;28;20417;-67
2021/01/26 12:47:46;;;;;;;5.78;4.30;;;11.70;44.40;;;;;;5058457;28;20021;-69
2021/01/26 12:50:15;;;;;;;6.18;4.82;;;11.70;46.20;;;;;;5058106;28;20171;-67
2021/01/26 12:52:41;;;;;;;4.43;3.83;;;11.70;44.60;;;;;;5058078;28;20290;-67
2021/01/26 12:55:08;;;;;;;7.72;4.55;;;11.70;44.10;;;;;;5057841;28;20044;-67
2021/01/26 12:57:34;;;;;;;8.35;3.88;;;11.50;44.60;;;;;;5057947;28;20040;-67
2021/01/26 12:59:59;;;;;;;7.10;4.78;;;11.20;44.20;;;;;;5057881;28;20040;-67
2021/01/26 13:02:27;;;;;;;7.30;4.85;;;10.90;45.20;;;;;;5057927;28;20021;-68
2021/01/26 13:04:54;;;;;;;5.90;4.78;;;10.40;47.80;;;;;;5057635;28;20079;-69
2021/01/26 13:07:20;;;;;;;6.57;4.57;;;10.10;45.50;;;;;;5057803;28;20017;-69
2021/01/26 13:09:47;;;;;;;7.50;5.20;;;9.80;46.40;;;;;;5057686;28;20028;-69
2021/01/26 13:12:12;;;;;;;8.75;5.18;;;9.30;51.10;;;;;;5057649;28;20282;-69
2021/01/26 13:14:40;;;;;;;6.72;4.85;;;9.00;50.90;;;;;;5057743;28;20032;-69
2021/01/26 13:17:05;;;;;;;6.78;4.60;;;8.70;51.20;;;;;;5057622;28;20313;-69
2021/01/26 13:19:32;;;;;;;7.10;4.30;;;8.50;48.70;;;;;;5056771;28;20037;-69
2021/01/26 13:21:57;;;;;;;6.90;4.00;;;8.20;50.70;;;;;;5057490;28;20024;-69
2021/01/26 13:24:23;;;;;;;6.50;4.38;;;8.00;51.60;;;;;;5057280;28;20479;-68
2021/01/26 13:26:49;;;;;;;7.18;4.93;;;7.80;49.50;;;;;;5057326;28;20078;-69
2021/01/26 13:29:15;;;;;;;7.80;6.00;;;7.50;52.80;;;;;;5057306;28;20049;-69